createdAt,value
2017-11-24T00:01:13.111Z,0.87
2017-11-24T00:03:40.781Z,0.93
2017-11-24T00:06:08.393Z,1.90
2017-11-24T00:08:36.006Z,1.00
2017-11-24T00:11:03.669Z,1.20
2017-11-24T00:13:31.270Z,1.23
2017-11-24T00:15:58.877Z,1.37
2017-11-24T00:18:26.471Z,1.43
2017-11-24T00:20:54.845Z,1.30
2017-11-24T00:23:22.497Z,2.13
2017-11-24T00:25:50.112Z,1.20
2017-11-24T00:28:17.697Z,1.20
2017-11-24T00:30:45.311Z,1.13
2017-11-24T00:33:13.663Z,1.47
2017-11-24T00:35:42.795Z,1.20
2017-11-24T00:38:10.432Z,1.40
2017-11-24T00:40:38.834Z,1.83
2017-11-24T00:43:06.428Z,1.33
2017-11-24T00:45:34.038Z,1.00
2017-11-24T00:48:02.417Z,1.50
2017-11-24T00:50:30.787Z,1.03
2017-11-24T00:52:59.919Z,1.43
2017-11-24T00:55:27.509Z,1.57
2017-11-24T00:57:55.119Z,1.10
2017-11-24T01:00:23.473Z,1.50
2017-11-24T01:02:51.085Z,1.37
2017-11-24T01:05:18.675Z,1.33
2017-11-24T01:07:46.285Z,1.30
2017-11-24T01:10:14.637Z,1.50
2017-11-24T01:12:42.318Z,1.90
2017-11-24T01:15:10.686Z,1.60
2017-11-24T01:17:38.317Z,1.90
2017-11-24T01:20:05.914Z,1.60
2017-11-24T01:22:34.284Z,1.70
2017-11-24T01:25:01.894Z,1.47
2017-11-24T01:27:29.492Z,1.77
2017-11-24T01:29:57.118Z,1.53
2017-11-24T01:32:24.713Z,1.77
2017-11-24T01:34:52.347Z,1.43
2017-11-24T01:37:19.977Z,1.70
2017-11-24T01:39:48.369Z,2.20
2017-11-24T01:42:16.725Z,2.37
2017-11-24T01:44:45.850Z,2.20
2017-11-24T01:47:13.454Z,2.23
2017-11-24T01:49:41.158Z,2.27
2017-11-24T01:52:09.533Z,2.80
2017-11-24T01:54:37.918Z,3.20
2017-11-24T01:57:06.277Z,3.23
2017-11-24T01:59:33.950Z,3.03
2017-11-24T02:02:02.439Z,3.53
2017-11-24T02:04:31.642Z,3.40
2017-11-24T02:07:00.031Z,3.20
2017-11-24T02:09:28.382Z,2.87
2017-11-24T02:11:56.002Z,2.87
2017-11-24T02:14:23.594Z,2.97
2017-11-24T02:16:51.202Z,3.80
2017-11-24T02:19:19.563Z,3.60
2017-11-24T02:21:47.956Z,3.20
2017-11-24T02:24:16.639Z,3.27
2017-11-24T02:26:45.013Z,3.60
2017-11-24T02:29:13.375Z,3.63
2017-11-24T02:31:40.987Z,3.13
2017-11-24T02:34:08.578Z,4.27
2017-11-24T02:36:36.192Z,3.50
2017-11-24T02:39:04.552Z,3.80
2017-11-24T02:41:32.932Z,3.67
2017-11-24T02:44:01.319Z,4.23
2017-11-24T02:46:29.683Z,4.00
2017-11-24T02:48:57.298Z,3.83
2017-11-24T02:51:24.914Z,4.10
2017-11-24T02:53:52.542Z,3.90
2017-11-24T02:56:20.138Z,4.10
2017-11-24T02:58:49.262Z,4.00
2017-11-24T03:01:17.619Z,4.13
2017-11-24T03:03:46.093Z,3.40
2017-11-24T03:06:13.686Z,3.70
2017-11-24T03:08:41.317Z,3.00
2017-11-24T03:11:08.915Z,3.07
2017-11-24T03:13:36.547Z,3.70
2017-11-24T03:16:04.930Z,4.00
2017-11-24T03:18:33.292Z,3.60
2017-11-24T03:21:00.920Z,4.17
2017-11-24T03:23:28.509Z,5.17
2017-11-24T03:25:56.125Z,4.20
2017-11-24T03:28:23.715Z,3.80
2017-11-24T03:30:51.413Z,4.20
2017-11-24T03:33:20.610Z,3.97
2017-11-24T03:35:49.095Z,4.20
2017-11-24T03:38:16.686Z,4.70
2017-11-24T03:40:44.306Z,4.37
2017-11-24T03:43:11.987Z,4.43
2017-11-24T03:45:40.371Z,4.17
2017-11-24T03:48:08.731Z,4.00
2017-11-24T03:50:36.406Z,4.27
2017-11-24T03:53:04.758Z,4.13
2017-11-24T03:55:32.380Z,3.40
2017-11-24T03:57:59.975Z,6.53
2017-11-24T04:00:27.576Z,2.70
2017-11-24T04:02:56.338Z,3.07
2017-11-24T04:05:23.930Z,3.10
2017-11-24T04:07:52.402Z,2.67
2017-11-24T04:10:20.791Z,3.17
2017-11-24T04:12:49.266Z,2.60
2017-11-24T04:15:17.631Z,2.93
2017-11-24T04:17:45.257Z,2.37
2017-11-24T04:20:12.843Z,2.90
2017-11-24T04:22:40.465Z,2.60
2017-11-24T04:25:08.096Z,3.00
2017-11-24T04:27:36.497Z,3.27
2017-11-24T04:30:04.138Z,2.43
2017-11-24T04:32:32.614Z,2.50
2017-11-24T04:35:00.976Z,2.73
2017-11-24T04:37:28.658Z,2.90
2017-11-24T04:39:57.039Z,2.47
2017-11-24T04:42:26.134Z,2.40
2017-11-24T04:44:54.613Z,2.43
2017-11-24T04:47:22.211Z,2.70
2017-11-24T04:49:49.826Z,2.97
2017-11-24T04:52:17.419Z,2.73
2017-11-24T04:54:45.810Z,2.30
2017-11-24T04:57:13.402Z,2.93
2017-11-24T04:59:41.107Z,2.97
2017-11-24T05:02:10.202Z,2.80
2017-11-24T05:04:38.682Z,2.43
2017-11-24T05:07:06.351Z,3.37
2017-11-24T05:09:34.743Z,2.97
2017-11-24T05:12:03.215Z,3.10
2017-11-24T05:14:31.695Z,2.83
2017-11-24T05:16:59.323Z,3.00
2017-11-24T05:19:26.937Z,3.60
2017-11-24T05:21:54.531Z,4.00
2017-11-24T05:24:22.154Z,3.77
2017-11-24T05:26:50.623Z,2.80
2017-11-24T05:29:19.042Z,4.27
2017-11-24T05:31:46.667Z,2.87
2017-11-24T05:34:14.263Z,3.30
2017-11-24T05:36:41.886Z,2.50
2017-11-24T05:39:10.250Z,2.53
2017-11-24T05:41:37.870Z,2.47
2017-11-24T05:44:05.491Z,2.47
2017-11-24T05:46:36.103Z,3.10
2017-11-24T05:49:03.792Z,3.10
2017-11-24T05:51:32.190Z,3.03
2017-11-24T05:53:59.790Z,3.47
2017-11-24T05:56:27.411Z,3.20
2017-11-24T05:58:55.055Z,4.07
2017-11-24T06:01:22.673Z,3.47
2017-11-24T06:03:50.266Z,2.97
2017-11-24T06:06:17.868Z,3.30
2017-11-24T06:08:45.486Z,3.77
2017-11-24T06:11:13.087Z,3.40
2017-11-24T06:13:41.461Z,3.20
2017-11-24T06:16:09.822Z,3.10
2017-11-24T06:18:37.441Z,3.57
2017-11-24T06:21:05.059Z,3.37
2017-11-24T06:23:33.588Z,3.33
2017-11-24T06:26:01.302Z,2.80
2017-11-24T06:28:29.692Z,2.50
2017-11-24T06:30:58.151Z,2.50
2017-11-24T06:33:27.271Z,4.00
2017-11-24T06:35:55.646Z,3.90
2017-11-24T06:38:24.027Z,3.57
2017-11-24T06:40:52.388Z,3.60
2017-11-24T06:43:20.774Z,3.40
2017-11-24T06:45:49.259Z,3.40
2017-11-24T06:48:17.633Z,4.50
2017-11-24T06:50:45.298Z,5.60
2017-11-24T06:53:12.885Z,8.93
2017-11-24T06:55:40.523Z,9.70
2017-11-24T06:58:08.960Z,9.67
2017-11-24T07:00:36.662Z,10.50
2017-11-24T07:03:04.327Z,8.50
2017-11-24T07:05:31.943Z,8.13
2017-11-24T07:07:59.558Z,7.10
2017-11-24T07:10:27.951Z,7.10
2017-11-24T07:12:56.306Z,7.17
2017-11-24T07:15:25.510Z,5.87
2017-11-24T07:17:53.106Z,6.23
2017-11-24T07:20:20.740Z,5.50
2017-11-24T07:22:49.102Z,7.50
2017-11-24T07:25:17.502Z,5.03
2017-11-24T07:27:45.858Z,3.80
2017-11-24T07:30:13.538Z,3.83
2017-11-24T07:32:41.199Z,2.43
2017-11-24T07:35:08.794Z,3.00
2017-11-24T07:37:36.412Z,3.27
2017-11-24T07:40:05.514Z,3.70
2017-11-24T07:42:33.130Z,3.10
2017-11-24T07:45:00.747Z,3.97
2017-11-24T07:47:29.139Z,3.50
2017-11-24T07:49:58.327Z,4.53
2017-11-24T07:52:26.806Z,3.67
2017-11-24T07:54:54.467Z,3.90
2017-11-24T07:57:22.191Z,5.30
2017-11-24T07:59:49.782Z,5.30
2017-11-24T08:02:18.162Z,5.77
2017-11-24T08:04:46.537Z,7.60
2017-11-24T08:07:14.218Z,7.40
2017-11-24T08:09:42.666Z,7.53
2017-11-24T08:12:10.358Z,7.40
2017-11-24T08:14:39.474Z,6.60
2017-11-24T08:17:07.830Z,6.10
2017-11-24T08:19:35.458Z,6.37
2017-11-24T08:22:03.046Z,5.63
2017-11-24T08:24:30.662Z,6.87
2017-11-24T08:26:58.282Z,6.40
2017-11-24T08:29:25.890Z,6.10
2017-11-24T08:31:53.510Z,7.07
2017-11-24T08:34:21.123Z,5.77
2017-11-24T08:36:48.742Z,5.63
2017-11-24T08:39:17.142Z,6.73
2017-11-24T08:41:44.737Z,5.63
2017-11-24T08:44:12.325Z,5.67
2017-11-24T08:46:45.602Z,5.10
2017-11-24T08:49:18.996Z,5.67
2017-11-24T08:51:46.694Z,5.40
2017-11-24T08:54:14.283Z,5.27
2017-11-24T08:56:41.893Z,5.30
2017-11-24T08:59:09.582Z,5.40
2017-11-24T09:01:37.965Z,6.07
2017-11-24T09:04:06.398Z,6.60
2017-11-24T09:06:34.014Z,6.80
2017-11-24T09:09:02.375Z,6.33
2017-11-24T09:11:31.493Z,5.90
2017-11-24T09:13:59.847Z,5.73
2017-11-24T09:16:28.966Z,4.60
2017-11-24T09:18:57.325Z,5.67
2017-11-24T09:21:24.967Z,6.00
2017-11-24T09:23:52.562Z,6.37
2017-11-24T09:26:20.224Z,6.40
2017-11-24T09:28:48.615Z,5.77
2017-11-24T09:31:17.087Z,5.80
2017-11-24T09:33:44.698Z,6.50
2017-11-24T09:36:12.291Z,6.83
2017-11-24T09:38:39.907Z,6.10
2017-11-24T09:41:07.505Z,7.30
2017-11-24T09:43:35.120Z,7.43
2017-11-24T09:46:02.718Z,7.23
2017-11-24T09:48:30.418Z,6.20
2017-11-24T09:50:58.010Z,5.13
2017-11-24T09:53:25.650Z,5.57
2017-11-24T09:55:54.001Z,5.03
2017-11-24T09:58:21.640Z,6.10
2017-11-24T10:00:49.248Z,5.30
2017-11-24T10:03:17.610Z,5.10
2017-11-24T10:05:46.107Z,5.70
2017-11-24T10:08:13.766Z,5.93
2017-11-24T10:10:42.138Z,5.70
2017-11-24T10:13:09.733Z,7.33
2017-11-24T10:15:38.123Z,5.80
2017-11-24T10:18:05.813Z,5.43
2017-11-24T10:20:39.234Z,7.60
2017-11-24T10:23:06.915Z,5.67
2017-11-24T10:25:34.532Z,6.20
2017-11-24T10:28:02.143Z,5.83
2017-11-24T10:30:30.521Z,7.97
2017-11-24T10:32:58.526Z,7.37
2017-11-24T10:35:26.154Z,7.03
2017-11-24T10:37:53.815Z,6.60
2017-11-24T10:40:21.411Z,5.70
2017-11-24T10:42:49.035Z,6.00
2017-11-24T10:45:17.399Z,4.37
2017-11-24T10:47:45.084Z,4.50
2017-11-24T10:50:13.447Z,5.07
2017-11-24T10:52:41.067Z,5.20
2017-11-24T10:55:08.663Z,5.10
2017-11-24T10:57:36.408Z,4.67
2017-11-24T11:00:04.015Z,4.87
2017-11-24T11:02:32.390Z,4.70
2017-11-24T11:04:59.982Z,4.37
2017-11-24T11:07:27.604Z,3.47
2017-11-24T11:09:55.958Z,4.67
2017-11-24T11:12:23.579Z,3.50
2017-11-24T11:14:52.370Z,3.37
2017-11-24T11:17:20.722Z,4.37
2017-11-24T11:19:48.338Z,5.13
2017-11-24T11:22:15.937Z,6.10
2017-11-24T11:24:44.332Z,3.17
2017-11-24T11:27:12.705Z,2.53
2017-11-24T11:29:41.835Z,3.60
2017-11-24T11:32:09.428Z,3.97
2017-11-24T11:34:37.134Z,3.37
2017-11-24T11:37:05.496Z,3.53
2017-11-24T11:39:33.114Z,2.57
2017-11-24T11:42:00.711Z,3.27
2017-11-24T11:44:28.397Z,3.47
2017-11-24T11:46:58.542Z,3.37
2017-11-24T11:49:27.002Z,3.83
2017-11-24T11:51:54.662Z,3.60
2017-11-24T11:54:22.280Z,3.77
2017-11-24T11:56:49.894Z,3.07
2017-11-24T11:59:18.375Z,4.33
2017-11-24T12:01:46.737Z,3.57
2017-11-24T12:04:15.110Z,3.50
2017-11-24T12:06:43.493Z,5.70
2017-11-24T12:09:11.178Z,4.77
2017-11-24T12:11:39.568Z,3.63
2017-11-24T12:14:08.043Z,4.60
2017-11-24T12:16:36.443Z,9.00
2017-11-24T12:19:04.043Z,9.03
2017-11-24T12:21:31.661Z,6.97
2017-11-24T12:24:00.124Z,5.47
2017-11-24T12:26:28.510Z,3.90
2017-11-24T12:28:56.990Z,4.67
2017-11-24T12:31:25.370Z,3.43
2017-11-24T12:33:53.743Z,2.63
2017-11-24T12:36:21.408Z,3.50
2017-11-24T12:38:49.002Z,4.90
2017-11-24T12:41:16.607Z,4.70
2017-11-24T12:43:44.232Z,4.00
2017-11-24T12:46:11.826Z,4.30
2017-11-24T12:48:39.446Z,4.53
2017-11-24T12:51:07.078Z,5.50
2017-11-24T12:53:34.690Z,3.60
2017-11-24T12:56:02.295Z,3.33
2017-11-24T12:58:29.920Z,3.57
2017-11-24T13:00:57.583Z,2.90
2017-11-24T13:03:25.286Z,3.13
2017-11-24T13:05:52.888Z,3.60
2017-11-24T13:08:20.618Z,2.40
2017-11-24T13:10:49.099Z,3.00
2017-11-24T13:13:16.746Z,2.70
2017-11-24T13:15:45.113Z,3.80
2017-11-24T13:18:12.710Z,2.90
2017-11-24T13:20:41.178Z,3.40
2017-11-24T13:23:08.849Z,3.60
2017-11-24T13:25:36.522Z,2.37
2017-11-24T13:28:04.899Z,5.23
2017-11-24T13:30:33.282Z,5.50
2017-11-24T13:33:01.649Z,3.23
2017-11-24T13:35:30.135Z,4.30
2017-11-24T13:37:58.614Z,4.47
2017-11-24T13:40:26.233Z,4.13
2017-11-24T13:42:53.821Z,4.40
2017-11-24T13:45:21.443Z,3.70
2017-11-24T13:47:49.071Z,4.50
2017-11-24T13:50:17.546Z,3.53
2017-11-24T13:52:45.207Z,3.33
2017-11-24T13:55:12.802Z,3.83
2017-11-24T13:57:40.425Z,4.30
2017-11-24T14:00:08.090Z,3.90
2017-11-24T14:02:35.711Z,4.23
2017-11-24T14:05:03.427Z,4.23
2017-11-24T14:07:31.906Z,4.50
2017-11-24T14:10:00.271Z,5.00
2017-11-24T14:12:28.654Z,5.10
2017-11-24T14:14:56.254Z,5.40
2017-11-24T14:17:23.873Z,5.17
2017-11-24T14:19:51.505Z,4.90
2017-11-24T14:22:19.122Z,4.00
2017-11-24T14:24:47.482Z,4.90
2017-11-24T14:27:15.131Z,4.47
2017-11-24T14:29:44.242Z,4.60
2017-11-24T14:32:11.921Z,3.63
2017-11-24T14:34:40.302Z,4.20
2017-11-24T14:37:08.770Z,3.47
2017-11-24T14:39:36.435Z,3.80
2017-11-24T14:42:04.098Z,4.23
2017-11-24T14:44:32.489Z,2.90
2017-11-24T14:47:00.854Z,3.70
2017-11-24T14:49:28.527Z,3.17
2017-11-24T14:51:56.890Z,3.77
2017-11-24T14:54:25.292Z,4.27
2017-11-24T14:56:53.721Z,3.80
2017-11-24T14:59:21.361Z,3.07
2017-11-24T15:01:48.962Z,3.20
2017-11-24T15:04:16.709Z,3.37
2017-11-24T15:06:44.332Z,3.33
2017-11-24T15:09:12.799Z,4.27
2017-11-24T15:11:41.273Z,3.10
2017-11-24T15:14:08.869Z,3.90
2017-11-24T15:16:36.484Z,3.50
2017-11-24T15:19:04.166Z,4.50
2017-11-24T15:21:31.830Z,4.33
2017-11-24T15:23:59.502Z,4.47
2017-11-24T15:26:27.915Z,4.07
2017-11-24T15:28:55.513Z,5.23
2017-11-24T15:31:23.115Z,5.43
2017-11-24T15:33:51.516Z,5.00
2017-11-24T15:36:19.144Z,4.13
2017-11-24T15:38:47.540Z,4.33
2017-11-24T15:41:15.898Z,4.30
2017-11-24T15:43:43.564Z,4.07
2017-11-24T15:46:11.922Z,3.40
2017-11-24T15:48:39.539Z,3.87
2017-11-24T15:51:07.135Z,3.77
2017-11-24T15:53:34.778Z,5.00
2017-11-24T15:56:02.370Z,3.53
2017-11-24T15:58:30.055Z,4.40
2017-11-24T16:00:58.438Z,5.10
2017-11-24T16:03:26.918Z,5.33
2017-11-24T16:05:55.306Z,4.60
2017-11-24T16:08:23.779Z,5.20
2017-11-24T16:10:52.162Z,4.27
2017-11-24T16:13:20.538Z,4.73
2017-11-24T16:15:49.018Z,5.33
2017-11-24T16:18:16.620Z,4.83
2017-11-24T16:20:44.338Z,4.87
2017-11-24T16:23:12.727Z,3.77
2017-11-24T16:25:41.102Z,5.00
2017-11-24T16:28:08.762Z,4.37
2017-11-24T16:30:36.347Z,4.37
2017-11-24T16:33:04.807Z,7.50
2017-11-24T16:35:32.403Z,8.97
2017-11-24T16:38:00.026Z,5.50
2017-11-24T16:40:27.704Z,3.93
2017-11-24T16:42:56.183Z,3.53
2017-11-24T16:45:24.550Z,3.90
2017-11-24T16:47:53.042Z,3.70
2017-11-24T16:50:21.411Z,4.13
2017-11-24T16:52:49.803Z,3.67
2017-11-24T16:55:18.281Z,36.47
2017-11-24T16:57:45.942Z,5.00
2017-11-24T17:00:14.330Z,4.50
2017-11-24T17:02:42.711Z,4.57
2017-11-24T17:05:11.181Z,5.83
2017-11-24T17:07:40.429Z,4.53
2017-11-24T17:10:08.023Z,4.57
2017-11-24T17:12:35.619Z,4.07
2017-11-24T17:15:04.002Z,4.97
2017-11-24T17:17:32.357Z,4.97
2017-11-24T17:20:01.478Z,4.80
2017-11-24T17:22:29.843Z,5.57
2017-11-24T17:24:58.230Z,4.77
2017-11-24T17:27:26.707Z,9.17
2017-11-24T17:29:54.374Z,48.23
2017-11-24T17:32:22.739Z,43.40
2017-11-24T17:34:51.955Z,105.60
2017-11-24T17:37:20.336Z,8.10
2017-11-24T17:39:48.702Z,5.63
2017-11-24T17:42:17.106Z,5.10
2017-11-24T17:44:45.462Z,5.80
2017-11-24T17:47:14.666Z,5.80
2017-11-24T17:49:42.323Z,5.80
2017-11-24T17:52:09.947Z,6.50
2017-11-24T17:54:37.535Z,5.83
2017-11-24T17:57:05.217Z,6.60
2017-11-24T17:59:32.887Z,7.03
2017-11-24T18:02:01.329Z,8.70
2017-11-24T18:04:28.923Z,8.17
2017-11-24T18:06:56.588Z,8.70
2017-11-24T18:09:24.955Z,7.93
2017-11-24T18:11:54.059Z,8.60
2017-11-24T18:14:22.443Z,7.57
2017-11-24T18:16:50.125Z,8.80
2017-11-24T18:19:17.771Z,7.70
2017-11-24T18:21:46.131Z,6.83
2017-11-24T18:24:13.741Z,7.93
2017-11-24T18:26:41.327Z,6.80
2017-11-24T18:29:09.035Z,8.73
2017-11-24T18:31:36.622Z,16.73
2017-11-24T18:34:04.255Z,16.70
2017-11-24T18:36:31.848Z,37.40
2017-11-24T18:38:59.486Z,17.47
2017-11-24T18:41:27.850Z,12.70
2017-11-24T18:43:56.222Z,21.07
2017-11-24T18:46:23.843Z,18.33
2017-11-24T18:48:51.443Z,34.63
2017-11-24T18:51:19.062Z,31.93
2017-11-24T18:53:46.691Z,28.77
2017-11-24T18:56:15.087Z,20.63
2017-11-24T18:58:43.442Z,9.70
2017-11-24T19:01:11.826Z,9.77
2017-11-24T19:03:40.939Z,9.37
2017-11-24T19:06:09.327Z,10.30
2017-11-24T19:08:36.932Z,8.63
2017-11-24T19:11:04.570Z,10.43
2017-11-24T19:13:32.194Z,10.53
2017-11-24T19:16:00.566Z,11.27
2017-11-24T19:18:29.056Z,9.57
2017-11-24T19:20:57.585Z,10.60
2017-11-24T19:23:25.946Z,10.00
2017-11-24T19:25:53.582Z,9.70
2017-11-24T19:28:22.059Z,9.47
2017-11-24T19:30:50.427Z,11.43
2017-11-24T19:33:19.642Z,11.47
2017-11-24T19:35:48.133Z,11.63
2017-11-24T19:38:16.522Z,14.30
2017-11-24T19:40:44.890Z,14.03
2017-11-24T19:43:13.303Z,12.03
2017-11-24T19:45:40.902Z,12.30
2017-11-24T19:48:08.590Z,11.43
2017-11-24T19:50:36.977Z,13.20
2017-11-24T19:53:05.347Z,13.90
2017-11-24T19:55:33.749Z,12.63
2017-11-24T19:58:01.355Z,14.63
2017-11-24T20:00:28.982Z,12.93
2017-11-24T20:02:56.614Z,14.03
2017-11-24T20:05:25.003Z,13.30
2017-11-24T20:07:53.370Z,13.03
2017-11-24T20:10:21.012Z,13.00
2017-11-24T20:12:48.615Z,14.50
2017-11-24T20:15:17.078Z,14.30
2017-11-24T20:17:44.741Z,13.23
2017-11-24T20:20:13.107Z,13.53
2017-11-24T20:22:40.735Z,12.97
2017-11-24T20:25:08.333Z,13.33
2017-11-24T20:27:35.957Z,12.23
2017-11-24T20:30:03.675Z,13.03
2017-11-24T20:32:32.086Z,13.40
2017-11-24T20:34:59.696Z,12.53
2017-11-24T20:37:27.383Z,15.63
2017-11-24T20:39:55.783Z,12.27
2017-11-24T20:42:23.421Z,13.83
2017-11-24T20:44:51.901Z,14.13
2017-11-24T20:47:20.270Z,13.80
2017-11-24T20:49:47.955Z,13.43
2017-11-24T20:52:16.319Z,14.40
2017-11-24T20:54:43.987Z,13.83
2017-11-24T20:57:12.357Z,13.43
2017-11-24T20:59:40.007Z,13.57
2017-11-24T21:02:07.619Z,14.20
2017-11-24T21:04:35.223Z,14.17
2017-11-24T21:07:02.850Z,13.07
2017-11-24T21:09:30.450Z,15.17
2017-11-24T21:11:58.071Z,14.70
2017-11-24T21:14:25.673Z,14.23
2017-11-24T21:16:53.299Z,14.47
2017-11-24T21:19:20.940Z,16.17
2017-11-24T21:21:49.354Z,15.30
2017-11-24T21:24:16.962Z,17.53
2017-11-24T21:26:44.586Z,15.70
2017-11-24T21:29:12.225Z,18.90
2017-11-24T21:31:39.847Z,17.57
2017-11-24T21:34:07.518Z,16.97
2017-11-24T21:36:35.907Z,18.30
2017-11-24T21:39:04.269Z,17.23
2017-11-24T21:41:31.902Z,19.20
2017-11-24T21:43:59.502Z,18.87
2017-11-24T21:46:27.918Z,18.53
2017-11-24T21:48:55.562Z,18.23
2017-11-24T21:51:23.925Z,18.67
2017-11-24T21:53:52.407Z,18.00
2017-11-24T21:56:20.896Z,17.73
2017-11-24T21:58:49.282Z,18.70
2017-11-24T22:01:17.755Z,20.00
2017-11-24T22:03:46.239Z,17.87
2017-11-24T22:06:14.602Z,18.10
2017-11-24T22:08:42.228Z,17.77
2017-11-24T22:11:09.838Z,17.37
2017-11-24T22:13:38.967Z,17.23
2017-11-24T22:16:06.562Z,16.47
2017-11-24T22:18:34.218Z,16.37
2017-11-24T22:21:01.825Z,16.50
2017-11-24T22:23:30.316Z,17.67
2017-11-24T22:25:58.706Z,16.60
2017-11-24T22:28:26.306Z,16.73
2017-11-24T22:30:53.932Z,17.67
2017-11-24T22:33:21.530Z,17.87
2017-11-24T22:35:49.150Z,18.67
2017-11-24T22:38:17.526Z,19.30
2017-11-24T22:40:45.923Z,17.30
2017-11-24T22:43:13.528Z,18.83
2017-11-24T22:45:41.222Z,19.50
2017-11-24T22:48:09.702Z,17.17
2017-11-24T22:50:38.095Z,17.83
2017-11-24T22:53:07.104Z,17.53
2017-11-24T22:55:34.697Z,17.70
2017-11-24T22:58:02.322Z,17.50
2017-11-24T23:00:29.962Z,16.37
2017-11-24T23:02:58.355Z,17.30
2017-11-24T23:05:26.724Z,17.80
2017-11-24T23:07:55.118Z,17.63
2017-11-24T23:10:23.583Z,17.40
2017-11-24T23:12:51.975Z,16.67
2017-11-24T23:15:20.339Z,16.17
2017-11-24T23:17:48.743Z,16.17
2017-11-24T23:20:17.107Z,16.77
2017-11-24T23:22:45.494Z,17.60
2017-11-24T23:25:13.968Z,17.00
2017-11-24T23:27:42.380Z,17.60
2017-11-24T23:30:09.990Z,17.20
2017-11-24T23:32:37.674Z,14.50
2017-11-24T23:35:06.142Z,16.00
2017-11-24T23:37:33.742Z,18.47
2017-11-24T23:40:01.366Z,18.60
2017-11-24T23:42:29.042Z,17.30
2017-11-24T23:44:57.430Z,15.43
2017-11-24T23:47:25.795Z,18.30
2017-11-24T23:49:55.003Z,16.67
2017-11-24T23:52:23.382Z,17.73
2017-11-24T23:54:51.765Z,19.67
2017-11-24T23:57:20.132Z,20.17
2017-11-24T23:59:47.780Z,18.47
